sensor_id;sensor_type;location;lat;lon;timestamp;P1;durP1;ratioP1;P2;durP2;ratioP2
21038;SDS011;10678;51.002;4.786;2023-03-14T00:00:53;5.75;;;1.25;;
21038;SDS011;10678;51.002;4.786;2023-03-14T00:03:19;7.70;;;1.10;;
21038;SDS011;10678;51.002;4.786;2023-03-14T00:05:44;6.53;;;1.20;;
21038;SDS011;10678;51.002;4.786;2023-03-14T00:08:10;6.07;;;1.35;;
21038;SDS011;10678;51.002;4.786;2023-03-14T00:10:36;3.83;;;1.00;;
21038;SDS011;10678;51.002;4.786;2023-03-14T00:13:03;6.00;;;1.35;;
21038;SDS011;10678;51.002;4.786;2023-03-14T00:15:28;6.90;;;0.90;;
21038;SDS011;10678;51.002;4.786;2023-03-14T00:17:54;7.30;;;1.05;;
21038;SDS011;10678;51.002;4.786;2023-03-14T00:20:19;4.20;;;0.82;;
21038;SDS011;10678;51.002;4.786;2023-03-14T00:22:45;5.97;;;1.25;;
21038;SDS011;10678;51.002;4.786;2023-03-14T00:25:11;8.52;;;1.30;;
21038;SDS011;10678;51.002;4.786;2023-03-14T00:27:37;7.38;;;1.20;;
21038;SDS011;10678;51.002;4.786;2023-03-14T00:30:04;5.15;;;1.02;;
21038;SDS011;10678;51.002;4.786;2023-03-14T00:32:30;7.75;;;1.35;;
21038;SDS011;10678;51.002;4.786;2023-03-14T00:34:56;10.55;;;1.20;;
21038;SDS011;10678;51.002;4.786;2023-03-14T00:37:21;6.55;;;1.13;;
21038;SDS011;10678;51.002;4.786;2023-03-14T00:39:47;7.88;;;1.55;;
21038;SDS011;10678;51.002;4.786;2023-03-14T00:42:13;7.63;;;1.40;;
21038;SDS011;10678;51.002;4.786;2023-03-14T00:44:39;7.25;;;1.42;;
21038;SDS011;10678;51.002;4.786;2023-03-14T00:47:04;5.97;;;1.23;;
21038;SDS011;10678;51.002;4.786;2023-03-14T00:49:30;6.18;;;1.65;;
21038;SDS011;10678;51.002;4.786;2023-03-14T00:51:56;8.38;;;1.15;;
21038;SDS011;10678;51.002;4.786;2023-03-14T00:54:21;11.82;;;1.75;;
21038;SDS011;10678;51.002;4.786;2023-03-14T00:56:47;6.50;;;1.17;;
21038;SDS011;10678;51.002;4.786;2023-03-14T00:59:13;10.95;;;1.65;;
21038;SDS011;10678;51.002;4.786;2023-03-14T01:01:39;9.73;;;1.33;;
21038;SDS011;10678;51.002;4.786;2023-03-14T01:04:05;10.93;;;1.60;;
21038;SDS011;10678;51.002;4.786;2023-03-14T01:06:30;7.43;;;1.70;;
21038;SDS011;10678;51.002;4.786;2023-03-14T01:08:56;5.95;;;1.42;;
21038;SDS011;10678;51.002;4.786;2023-03-14T01:11:26;7.20;;;1.38;;
21038;SDS011;10678;51.002;4.786;2023-03-14T01:13:54;12.52;;;1.60;;
21038;SDS011;10678;51.002;4.786;2023-03-14T01:16:21;7.63;;;2.00;;
21038;SDS011;10678;51.002;4.786;2023-03-14T01:18:47;8.57;;;1.60;;
21038;SDS011;10678;51.002;4.786;2023-03-14T01:21:18;9.38;;;1.52;;
21038;SDS011;10678;51.002;4.786;2023-03-14T01:23:49;6.28;;;1.63;;
21038;SDS011;10678;51.002;4.786;2023-03-14T01:26:16;11.40;;;1.92;;
21038;SDS011;10678;51.002;4.786;2023-03-14T01:28:48;8.77;;;1.75;;
21038;SDS011;10678;51.002;4.786;2023-03-14T01:31:15;6.78;;;1.50;;
21038;SDS011;10678;51.002;4.786;2023-03-14T01:33:41;13.75;;;1.90;;
21038;SDS011;10678;51.002;4.786;2023-03-14T01:36:07;6.40;;;1.08;;
21038;SDS011;10678;51.002;4.786;2023-03-14T01:38:34;9.85;;;1.45;;
21038;SDS011;10678;51.002;4.786;2023-03-14T01:41:01;9.40;;;1.80;;
21038;SDS011;10678;51.002;4.786;2023-03-14T01:43:27;12.52;;;2.10;;
21038;SDS011;10678;51.002;4.786;2023-03-14T01:51:02;12.60;;;1.75;;
21038;SDS011;10678;51.002;4.786;2023-03-14T01:53:31;8.15;;;1.77;;
21038;SDS011;10678;51.002;4.786;2023-03-14T01:55:57;9.75;;;1.75;;
21038;SDS011;10678;51.002;4.786;2023-03-14T01:58:23;8.93;;;1.60;;
21038;SDS011;10678;51.002;4.786;2023-03-14T02:00:52;9.80;;;1.70;;
21038;SDS011;10678;51.002;4.786;2023-03-14T02:03:18;9.98;;;1.50;;
21038;SDS011;10678;51.002;4.786;2023-03-14T02:05:47;10.60;;;2.22;;
21038;SDS011;10678;51.002;4.786;2023-03-14T02:08:15;13.40;;;2.30;;
21038;SDS011;10678;51.002;4.786;2023-03-14T02:10:44;9.73;;;1.83;;
21038;SDS011;10678;51.002;4.786;2023-03-14T02:13:11;11.23;;;1.83;;
21038;SDS011;10678;51.002;4.786;2023-03-14T02:15:38;8.52;;;1.75;;
21038;SDS011;10678;51.002;4.786;2023-03-14T02:18:05;11.13;;;1.98;;
21038;SDS011;10678;51.002;4.786;2023-03-14T02:20:37;14.27;;;2.55;;
21038;SDS011;10678;51.002;4.786;2023-03-14T02:23:05;11.98;;;2.20;;
21038;SDS011;10678;51.002;4.786;2023-03-14T02:28:16;9.82;;;2.15;;
21038;SDS011;10678;51.002;4.786;2023-03-14T02:30:42;9.77;;;1.45;;
21038;SDS011;10678;51.002;4.786;2023-03-14T02:33:18;7.13;;;1.05;;
21038;SDS011;10678;51.002;4.786;2023-03-14T02:35:59;8.50;;;1.00;;
21038;SDS011;10678;51.002;4.786;2023-03-14T02:41:01;7.07;;;1.30;;
21038;SDS011;10678;51.002;4.786;2023-03-14T02:43:26;4.15;;;0.93;;
21038;SDS011;10678;51.002;4.786;2023-03-14T02:45:52;6.35;;;0.60;;
21038;SDS011;10678;51.002;4.786;2023-03-14T02:48:24;6.00;;;0.85;;
21038;SDS011;10678;51.002;4.786;2023-03-14T02:50:57;5.43;;;1.20;;
21038;SDS011;10678;51.002;4.786;2023-03-14T02:53:26;2.78;;;0.60;;
21038;SDS011;10678;51.002;4.786;2023-03-14T02:55:53;6.22;;;1.08;;
21038;SDS011;10678;51.002;4.786;2023-03-14T02:58:18;4.82;;;0.63;;
21038;SDS011;10678;51.002;4.786;2023-03-14T03:00:45;6.38;;;1.17;;
21038;SDS011;10678;51.002;4.786;2023-03-14T03:03:10;10.20;;;1.13;;
21038;SDS011;10678;51.002;4.786;2023-03-14T03:05:36;6.57;;;1.00;;
21038;SDS011;10678;51.002;4.786;2023-03-14T03:08:02;7.65;;;1.45;;
21038;SDS011;10678;51.002;4.786;2023-03-14T03:10:28;3.72;;;0.77;;
21038;SDS011;10678;51.002;4.786;2023-03-14T03:12:55;2.50;;;0.73;;
21038;SDS011;10678;51.002;4.786;2023-03-14T03:15:21;6.75;;;1.05;;
21038;SDS011;10678;51.002;4.786;2023-03-14T03:17:47;3.72;;;1.23;;
21038;SDS011;10678;51.002;4.786;2023-03-14T03:20:13;3.70;;;0.80;;
21038;SDS011;10678;51.002;4.786;2023-03-14T03:22:38;7.13;;;1.58;;
21038;SDS011;10678;51.002;4.786;2023-03-14T03:25:05;7.05;;;0.90;;
21038;SDS011;10678;51.002;4.786;2023-03-14T03:27:32;5.97;;;1.20;;
21038;SDS011;10678;51.002;4.786;2023-03-14T03:29:59;6.68;;;1.08;;
21038;SDS011;10678;51.002;4.786;2023-03-14T03:32:25;7.13;;;1.20;;
21038;SDS011;10678;51.002;4.786;2023-03-14T03:34:51;6.07;;;1.17;;
21038;SDS011;10678;51.002;4.786;2023-03-14T03:37:17;5.03;;;1.23;;
21038;SDS011;10678;51.002;4.786;2023-03-14T03:39:43;5.75;;;1.15;;
21038;SDS011;10678;51.002;4.786;2023-03-14T03:42:09;5.75;;;1.08;;
21038;SDS011;10678;51.002;4.786;2023-03-14T03:44:34;7.63;;;1.23;;
21038;SDS011;10678;51.002;4.786;2023-03-14T03:47:00;5.30;;;1.23;;
21038;SDS011;10678;51.002;4.786;2023-03-14T03:49:31;5.50;;;1.50;;
21038;SDS011;10678;51.002;4.786;2023-03-14T03:51:57;9.45;;;1.50;;
21038;SDS011;10678;51.002;4.786;2023-03-14T03:54:24;7.82;;;1.40;;
21038;SDS011;10678;51.002;4.786;2023-03-14T03:56:50;6.47;;;1.15;;
21038;SDS011;10678;51.002;4.786;2023-03-14T03:59:16;8.27;;;1.65;;
21038;SDS011;10678;51.002;4.786;2023-03-14T04:01:42;9.20;;;1.65;;
21038;SDS011;10678;51.002;4.786;2023-03-14T04:04:08;9.13;;;1.77;;
21038;SDS011;10678;51.002;4.786;2023-03-14T04:06:34;8.23;;;1.75;;
21038;SDS011;10678;51.002;4.786;2023-03-14T04:09:00;10.88;;;1.67;;
21038;SDS011;10678;51.002;4.786;2023-03-14T04:11:25;11.35;;;2.03;;
21038;SDS011;10678;51.002;4.786;2023-03-14T04:13:51;9.18;;;1.63;;
21038;SDS011;10678;51.002;4.786;2023-03-14T04:16:18;6.80;;;1.85;;
21038;SDS011;10678;51.002;4.786;2023-03-14T04:18:45;9.68;;;1.85;;
21038;SDS011;10678;51.002;4.786;2023-03-14T04:21:11;5.55;;;1.13;;
21038;SDS011;10678;51.002;4.786;2023-03-14T04:23:37;7.63;;;1.88;;
21038;SDS011;10678;51.002;4.786;2023-03-14T04:26:02;8.95;;;2.22;;
21038;SDS011;10678;51.002;4.786;2023-03-14T04:28:28;7.25;;;1.50;;
21038;SDS011;10678;51.002;4.786;2023-03-14T04:30:54;7.18;;;1.63;;
21038;SDS011;10678;51.002;4.786;2023-03-14T04:33:20;6.65;;;1.55;;
21038;SDS011;10678;51.002;4.786;2023-03-14T04:35:45;5.80;;;1.50;;
21038;SDS011;10678;51.002;4.786;2023-03-14T04:38:12;10.32;;;1.77;;
21038;SDS011;10678;51.002;4.786;2023-03-14T04:40:38;6.65;;;1.50;;
21038;SDS011;10678;51.002;4.786;2023-03-14T04:43:05;6.25;;;1.73;;
21038;SDS011;10678;51.002;4.786;2023-03-14T04:45:31;9.60;;;1.85;;
21038;SDS011;10678;51.002;4.786;2023-03-14T04:47:57;9.27;;;1.75;;
21038;SDS011;10678;51.002;4.786;2023-03-14T04:50:23;9.07;;;2.55;;
21038;SDS011;10678;51.002;4.786;2023-03-14T04:52:48;6.75;;;1.60;;
21038;SDS011;10678;51.002;4.786;2023-03-14T04:55:14;6.15;;;1.52;;
21038;SDS011;10678;51.002;4.786;2023-03-14T04:57:39;8.77;;;1.48;;
21038;SDS011;10678;51.002;4.786;2023-03-14T05:00:05;5.93;;;1.50;;
21038;SDS011;10678;51.002;4.786;2023-03-14T05:02:32;8.50;;;1.70;;
21038;SDS011;10678;51.002;4.786;2023-03-14T05:04:58;6.93;;;1.40;;
21038;SDS011;10678;51.002;4.786;2023-03-14T05:07:23;6.72;;;1.50;;
21038;SDS011;10678;51.002;4.786;2023-03-14T05:09:49;5.35;;;1.15;;
21038;SDS011;10678;51.002;4.786;2023-03-14T05:12:14;5.97;;;1.38;;
21038;SDS011;10678;51.002;4.786;2023-03-14T05:14:40;4.97;;;1.15;;
21038;SDS011;10678;51.002;4.786;2023-03-14T05:17:05;7.07;;;1.60;;
21038;SDS011;10678;51.002;4.786;2023-03-14T05:19:31;5.68;;;1.52;;
21038;SDS011;10678;51.002;4.786;2023-03-14T05:21:57;8.75;;;1.40;;
21038;SDS011;10678;51.002;4.786;2023-03-14T05:24:22;4.63;;;1.20;;
21038;SDS011;10678;51.002;4.786;2023-03-14T05:26:48;5.05;;;1.15;;
21038;SDS011;10678;51.002;4.786;2023-03-14T05:29:13;5.53;;;1.33;;
21038;SDS011;10678;51.002;4.786;2023-03-14T05:31:39;5.18;;;1.40;;
21038;SDS011;10678;51.002;4.786;2023-03-14T05:34:04;8.10;;;1.65;;
21038;SDS011;10678;51.002;4.786;2023-03-14T05:36:30;6.13;;;2.15;;
21038;SDS011;10678;51.002;4.786;2023-03-14T05:38:56;5.50;;;1.60;;
21038;SDS011;10678;51.002;4.786;2023-03-14T05:41:21;4.88;;;1.88;;
21038;SDS011;10678;51.002;4.786;2023-03-14T05:43:47;8.30;;;1.50;;
21038;SDS011;10678;51.002;4.786;2023-03-14T05:46:13;5.70;;;1.40;;
21038;SDS011;10678;51.002;4.786;2023-03-14T05:48:38;9.80;;;1.85;;
21038;SDS011;10678;51.002;4.786;2023-03-14T05:51:04;9.27;;;2.38;;
21038;SDS011;10678;51.002;4.786;2023-03-14T05:53:30;9.43;;;2.00;;
21038;SDS011;10678;51.002;4.786;2023-03-14T05:55:57;6.22;;;1.48;;
21038;SDS011;10678;51.002;4.786;2023-03-14T05:58:23;6.45;;;1.77;;
21038;SDS011;10678;51.002;4.786;2023-03-14T06:00:49;5.75;;;1.60;;
21038;SDS011;10678;51.002;4.786;2023-03-14T06:03:15;6.97;;;1.77;;
21038;SDS011;10678;51.002;4.786;2023-03-14T06:05:41;6.82;;;1.80;;
21038;SDS011;10678;51.002;4.786;2023-03-14T06:08:07;6.50;;;1.85;;
21038;SDS011;10678;51.002;4.786;2023-03-14T06:10:32;5.28;;;1.73;;
21038;SDS011;10678;51.002;4.786;2023-03-14T06:13:00;6.05;;;2.08;;
21038;SDS011;10678;51.002;4.786;2023-03-14T06:15:25;5.40;;;1.90;;
21038;SDS011;10678;51.002;4.786;2023-03-14T06:17:53;4.82;;;1.90;;
21038;SDS011;10678;51.002;4.786;2023-03-14T06:20:19;7.40;;;2.22;;
21038;SDS011;10678;51.002;4.786;2023-03-14T06:22:45;5.88;;;2.35;;
21038;SDS011;10678;51.002;4.786;2023-03-14T06:25:11;6.70;;;2.70;;
21038;SDS011;10678;51.002;4.786;2023-03-14T06:27:36;7.32;;;3.72;;
21038;SDS011;10678;51.002;4.786;2023-03-14T06:30:02;5.43;;;2.38;;
21038;SDS011;10678;51.002;4.786;2023-03-14T06:32:28;7.97;;;2.63;;
21038;SDS011;10678;51.002;4.786;2023-03-14T06:34:53;4.68;;;2.28;;
21038;SDS011;10678;51.002;4.786;2023-03-14T06:37:19;7.72;;;2.17;;
21038;SDS011;10678;51.002;4.786;2023-03-14T06:39:44;4.70;;;2.25;;
21038;SDS011;10678;51.002;4.786;2023-03-14T06:42:10;6.07;;;2.53;;
21038;SDS011;10678;51.002;4.786;2023-03-14T06:44:36;6.25;;;3.03;;
21038;SDS011;10678;51.002;4.786;2023-03-14T06:47:02;8.13;;;3.30;;
21038;SDS011;10678;51.002;4.786;2023-03-14T06:49:27;7.65;;;2.85;;
21038;SDS011;10678;51.002;4.786;2023-03-14T06:51:53;9.05;;;2.85;;
21038;SDS011;10678;51.002;4.786;2023-03-14T06:54:18;7.75;;;2.60;;
21038;SDS011;10678;51.002;4.786;2023-03-14T06:56:44;4.90;;;2.58;;
21038;SDS011;10678;51.002;4.786;2023-03-14T06:59:10;5.70;;;2.08;;
21038;SDS011;10678;51.002;4.786;2023-03-14T07:01:35;5.78;;;2.40;;
21038;SDS011;10678;51.002;4.786;2023-03-14T07:04:01;6.50;;;2.38;;
21038;SDS011;10678;51.002;4.786;2023-03-14T07:06:27;5.50;;;2.10;;
21038;SDS011;10678;51.002;4.786;2023-03-14T07:08:54;5.28;;;2.08;;
21038;SDS011;10678;51.002;4.786;2023-03-14T07:11:20;3.92;;;1.80;;
21038;SDS011;10678;51.002;4.786;2023-03-14T07:13:46;4.35;;;0.70;;
21038;SDS011;10678;51.002;4.786;2023-03-14T07:16:11;3.20;;;0.90;;
21038;SDS011;10678;51.002;4.786;2023-03-14T07:18:37;2.63;;;0.73;;
21038;SDS011;10678;51.002;4.786;2023-03-14T07:21:03;6.15;;;0.80;;
21038;SDS011;10678;51.002;4.786;2023-03-14T07:23:30;4.13;;;0.88;;
21038;SDS011;10678;51.002;4.786;2023-03-14T07:25:55;2.40;;;0.80;;
21038;SDS011;10678;51.002;4.786;2023-03-14T07:28:21;5.03;;;1.13;;
21038;SDS011;10678;51.002;4.786;2023-03-14T07:30:48;6.00;;;1.97;;
21038;SDS011;10678;51.002;4.786;2023-03-14T07:33:14;8.83;;;2.00;;
21038;SDS011;10678;51.002;4.786;2023-03-14T07:35:39;3.63;;;1.80;;
21038;SDS011;10678;51.002;4.786;2023-03-14T07:38:05;3.60;;;1.30;;
21038;SDS011;10678;51.002;4.786;2023-03-14T07:40:31;5.63;;;1.40;;
21038;SDS011;10678;51.002;4.786;2023-03-14T07:42:56;3.50;;;1.10;;
21038;SDS011;10678;51.002;4.786;2023-03-14T07:45:22;3.10;;;0.73;;
21038;SDS011;10678;51.002;4.786;2023-03-14T07:47:48;2.77;;;0.90;;
21038;SDS011;10678;51.002;4.786;2023-03-14T07:50:13;6.60;;;0.83;;
21038;SDS011;10678;51.002;4.786;2023-03-14T07:52:39;2.07;;;0.67;;
21038;SDS011;10678;51.002;4.786;2023-03-14T07:55:04;4.47;;;1.30;;
21038;SDS011;10678;51.002;4.786;2023-03-14T07:57:30;7.27;;;1.10;;
21038;SDS011;10678;51.002;4.786;2023-03-14T07:59:57;8.77;;;1.10;;
21038;SDS011;10678;51.002;4.786;2023-03-14T08:02:23;5.57;;;1.27;;
21038;SDS011;10678;51.002;4.786;2023-03-14T08:04:49;5.17;;;1.20;;
21038;SDS011;10678;51.002;4.786;2023-03-14T08:07:15;5.70;;;0.87;;
21038;SDS011;10678;51.002;4.786;2023-03-14T08:09:41;3.70;;;1.30;;
21038;SDS011;10678;51.002;4.786;2023-03-14T08:12:07;4.25;;;0.90;;
21038;SDS011;10678;51.002;4.786;2023-03-14T08:14:33;3.60;;;1.30;;
21038;SDS011;10678;51.002;4.786;2023-03-14T08:16:58;5.57;;;1.33;;
21038;SDS011;10678;51.002;4.786;2023-03-14T08:19:24;3.50;;;1.23;;
21038;SDS011;10678;51.002;4.786;2023-03-14T08:21:50;4.93;;;1.20;;
21038;SDS011;10678;51.002;4.786;2023-03-14T08:24:15;3.87;;;1.53;;
21038;SDS011;10678;51.002;4.786;2023-03-14T08:26:41;7.23;;;1.80;;
21038;SDS011;10678;51.002;4.786;2023-03-14T08:29:07;9.07;;;1.97;;
21038;SDS011;10678;51.002;4.786;2023-03-14T08:31:33;8.20;;;2.05;;
21038;SDS011;10678;51.002;4.786;2023-03-14T08:34:00;6.33;;;1.80;;
21038;SDS011;10678;51.002;4.786;2023-03-14T08:36:26;3.17;;;1.10;;
21038;SDS011;10678;51.002;4.786;2023-03-14T08:38:52;6.13;;;1.60;;
21038;SDS011;10678;51.002;4.786;2023-03-14T08:41:18;9.57;;;1.70;;
21038;SDS011;10678;51.002;4.786;2023-03-14T08:43:43;4.53;;;1.30;;
21038;SDS011;10678;51.002;4.786;2023-03-14T08:46:09;4.40;;;1.27;;
21038;SDS011;10678;51.002;4.786;2023-03-14T08:48:34;8.43;;;1.67;;
21038;SDS011;10678;51.002;4.786;2023-03-14T08:51:07;7.38;;;1.30;;
21038;SDS011;10678;51.002;4.786;2023-03-14T08:53:35;4.77;;;1.33;;
21038;SDS011;10678;51.002;4.786;2023-03-14T08:56:01;4.03;;;0.82;;
21038;SDS011;10678;51.002;4.786;2023-03-14T08:58:28;4.07;;;0.97;;
21038;SDS011;10678;51.002;4.786;2023-03-14T09:00:54;3.30;;;0.95;;
21038;SDS011;10678;51.002;4.786;2023-03-14T09:03:20;4.03;;;0.80;;
21038;SDS011;10678;51.002;4.786;2023-03-14T09:05:47;3.08;;;0.82;;
21038;SDS011;10678;51.002;4.786;2023-03-14T09:08:14;4.18;;;1.00;;
21038;SDS011;10678;51.002;4.786;2023-03-14T09:10:39;4.82;;;1.05;;
21038;SDS011;10678;51.002;4.786;2023-03-14T09:13:05;6.45;;;0.95;;
21038;SDS011;10678;51.002;4.786;2023-03-14T09:15:30;3.25;;;0.90;;
21038;SDS011;10678;51.002;4.786;2023-03-14T09:17:56;6.93;;;1.05;;
21038;SDS011;10678;51.002;4.786;2023-03-14T09:20:22;6.10;;;1.00;;
21038;SDS011;10678;51.002;4.786;2023-03-14T09:22:47;4.90;;;1.30;;
21038;SDS011;10678;51.002;4.786;2023-03-14T09:25:13;2.78;;;0.88;;
21038;SDS011;10678;51.002;4.786;2023-03-14T09:27:39;5.95;;;1.40;;
21038;SDS011;10678;51.002;4.786;2023-03-14T09:30:04;3.97;;;1.20;;
21038;SDS011;10678;51.002;4.786;2023-03-14T09:32:30;6.55;;;1.30;;
21038;SDS011;10678;51.002;4.786;2023-03-14T09:34:59;5.30;;;1.08;;
21038;SDS011;10678;51.002;4.786;2023-03-14T09:37:24;5.03;;;1.00;;
21038;SDS011;10678;51.002;4.786;2023-03-14T09:39:50;5.97;;;1.30;;
21038;SDS011;10678;51.002;4.786;2023-03-14T09:42:17;5.00;;;1.27;;
21038;SDS011;10678;51.002;4.786;2023-03-14T09:44:51;4.67;;;1.23;;
21038;SDS011;10678;51.002;4.786;2023-03-14T09:47:19;8.50;;;1.60;;
21038;SDS011;10678;51.002;4.786;2023-03-14T09:49:47;6.43;;;1.58;;
21038;SDS011;10678;51.002;4.786;2023-03-14T09:52:17;3.97;;;1.40;;
21038;SDS011;10678;51.002;4.786;2023-03-14T09:54:58;1.90;;;0.83;;
21038;SDS011;10678;51.002;4.786;2023-03-14T09:57:27;4.13;;;1.07;;
21038;SDS011;10678;51.002;4.786;2023-03-14T10:00:04;5.30;;;1.37;;
21038;SDS011;10678;51.002;4.786;2023-03-14T10:02:39;4.77;;;2.70;;
21038;SDS011;10678;51.002;4.786;2023-03-14T10:05:13;3.33;;;1.03;;
21038;SDS011;10678;51.002;4.786;2023-03-14T10:07:44;2.37;;;0.93;;
21038;SDS011;10678;51.002;4.786;2023-03-14T10:10:20;4.97;;;2.17;;
21038;SDS011;10678;51.002;4.786;2023-03-14T10:12:49;3.53;;;1.63;;
21038;SDS011;10678;51.002;4.786;2023-03-14T10:15:25;2.50;;;0.70;;
21038;SDS011;10678;51.002;4.786;2023-03-14T10:17:52;3.70;;;1.00;;
21038;SDS011;10678;51.002;4.786;2023-03-14T10:22:57;4.73;;;0.90;;
21038;SDS011;10678;51.002;4.786;2023-03-14T10:25:27;2.40;;;1.07;;
21038;SDS011;10678;51.002;4.786;2023-03-14T10:27:54;4.23;;;1.50;;
21038;SDS011;10678;51.002;4.786;2023-03-14T10:30:54;5.07;;;2.97;;
21038;SDS011;10678;51.002;4.786;2023-03-14T10:33:32;4.90;;;2.03;;
21038;SDS011;10678;51.002;4.786;2023-03-14T10:36:00;9.57;;;2.10;;
21038;SDS011;10678;51.002;4.786;2023-03-14T10:38:29;3.70;;;1.80;;
21038;SDS011;10678;51.002;4.786;2023-03-14T10:40:59;2.97;;;1.20;;
21038;SDS011;10678;51.002;4.786;2023-03-14T10:43:27;3.33;;;1.47;;
21038;SDS011;10678;51.002;4.786;2023-03-14T10:45:57;4.43;;;1.40;;
21038;SDS011;10678;51.002;4.786;2023-03-14T10:51:10;4.03;;;1.70;;
21038;SDS011;10678;51.002;4.786;2023-03-14T10:53:58;3.25;;;1.10;;
21038;SDS011;10678;51.002;4.786;2023-03-14T10:56:33;7.25;;;1.60;;
21038;SDS011;10678;51.002;4.786;2023-03-14T10:59:00;3.38;;;1.10;;
21038;SDS011;10678;51.002;4.786;2023-03-14T11:04:13;4.47;;;1.25;;
21038;SDS011;10678;51.002;4.786;2023-03-14T11:07:07;3.20;;;1.10;;
21038;SDS011;10678;51.002;4.786;2023-03-14T11:09:56;3.67;;;1.50;;
21038;SDS011;10678;51.002;4.786;2023-03-14T11:26:59;5.22;;;1.50;;
21038;SDS011;10678;51.002;4.786;2023-03-14T11:32:43;2.97;;;1.10;;
21038;SDS011;10678;51.002;4.786;2023-03-14T11:35:44;4.72;;;1.10;;
21038;SDS011;10678;51.002;4.786;2023-03-14T11:38:23;3.60;;;1.00;;
21038;SDS011;10678;51.002;4.786;2023-03-14T11:41:09;4.15;;;1.10;;
21038;SDS011;10678;51.002;4.786;2023-03-14T11:43:40;4.32;;;1.00;;
21038;SDS011;10678;51.002;4.786;2023-03-14T11:51:02;5.18;;;1.75;;
21038;SDS011;10678;51.002;4.786;2023-03-14T11:56:18;6.32;;;1.10;;
21038;SDS011;10678;51.002;4.786;2023-03-14T11:58:57;5.63;;;1.50;;
21038;SDS011;10678;51.002;4.786;2023-03-14T12:01:48;2.80;;;1.02;;
21038;SDS011;10678;51.002;4.786;2023-03-14T12:04:19;5.15;;;1.20;;
21038;SDS011;10678;51.002;4.786;2023-03-14T12:07:03;3.58;;;1.15;;
21038;SDS011;10678;51.002;4.786;2023-03-14T12:09:39;4.13;;;1.25;;
21038;SDS011;10678;51.002;4.786;2023-03-14T12:12:05;4.65;;;1.10;;
21038;SDS011;10678;51.002;4.786;2023-03-14T12:14:37;8.68;;;1.83;;
21038;SDS011;10678;51.002;4.786;2023-03-14T12:20:05;5.00;;;1.00;;
21038;SDS011;10678;51.002;4.786;2023-03-14T12:22:45;9.67;;;1.30;;
21038;SDS011;10678;51.002;4.786;2023-03-14T12:25:23;11.97;;;1.60;;
21038;SDS011;10678;51.002;4.786;2023-03-14T12:30:31;11.27;;;2.30;;
21038;SDS011;10678;51.002;4.786;2023-03-14T12:35:52;9.93;;;2.00;;
21038;SDS011;10678;51.002;4.786;2023-03-14T12:43:45;14.20;;;1.95;;
21038;SDS011;10678;51.002;4.786;2023-03-14T12:48:44;7.15;;;2.30;;
21038;SDS011;10678;51.002;4.786;2023-03-14T12:51:15;10.93;;;2.05;;
21038;SDS011;10678;51.002;4.786;2023-03-14T12:59:46;11.02;;;2.03;;
21038;SDS011;10678;51.002;4.786;2023-03-14T13:05:12;9.65;;;2.40;;
21038;SDS011;10678;51.002;4.786;2023-03-14T13:15:18;10.23;;;2.30;;
21038;SDS011;10678;51.002;4.786;2023-03-14T13:17:59;19.77;;;2.60;;
21038;SDS011;10678;51.002;4.786;2023-03-14T13:20:35;13.27;;;1.80;;
21038;SDS011;10678;51.002;4.786;2023-03-14T13:23:19;10.60;;;1.83;;
21038;SDS011;10678;51.002;4.786;2023-03-14T13:25:45;10.83;;;1.70;;
21038;SDS011;10678;51.002;4.786;2023-03-14T13:28:13;10.13;;;2.00;;
21038;SDS011;10678;51.002;4.786;2023-03-14T13:30:41;15.93;;;2.10;;
21038;SDS011;10678;51.002;4.786;2023-03-14T13:33:21;12.47;;;1.57;;
21038;SDS011;10678;51.002;4.786;2023-03-14T13:38:22;8.00;;;2.13;;
21038;SDS011;10678;51.002;4.786;2023-03-14T13:40:50;12.70;;;2.43;;
21038;SDS011;10678;51.002;4.786;2023-03-14T13:43:32;9.40;;;1.33;;
21038;SDS011;10678;51.002;4.786;2023-03-14T13:48:32;20.77;;;2.47;;
21038;SDS011;10678;51.002;4.786;2023-03-14T13:51:07;9.40;;;2.03;;
21038;SDS011;10678;51.002;4.786;2023-03-14T13:53:50;13.07;;;2.43;;
21038;SDS011;10678;51.002;4.786;2023-03-14T13:56:17;11.10;;;2.13;;
21038;SDS011;10678;51.002;4.786;2023-03-14T13:58:44;13.80;;;2.10;;
21038;SDS011;10678;51.002;4.786;2023-03-14T14:03:41;13.75;;;2.45;;
21038;SDS011;10678;51.002;4.786;2023-03-14T14:06:10;11.23;;;1.80;;
21038;SDS011;10678;51.002;4.786;2023-03-14T14:08:47;9.25;;;1.88;;
21038;SDS011;10678;51.002;4.786;2023-03-14T14:11:19;12.02;;;1.77;;
21038;SDS011;10678;51.002;4.786;2023-03-14T14:14:11;11.85;;;1.90;;
21038;SDS011;10678;51.002;4.786;2023-03-14T14:16:40;9.75;;;1.85;;
21038;SDS011;10678;51.002;4.786;2023-03-14T14:19:09;12.75;;;1.80;;
21038;SDS011;10678;51.002;4.786;2023-03-14T14:21:35;14.60;;;2.67;;
21038;SDS011;10678;51.002;4.786;2023-03-14T14:24:01;19.63;;;3.25;;
21038;SDS011;10678;51.002;4.786;2023-03-14T14:26:27;9.60;;;2.33;;
21038;SDS011;10678;51.002;4.786;2023-03-14T14:29:00;13.90;;;2.55;;
21038;SDS011;10678;51.002;4.786;2023-03-14T14:31:28;18.90;;;3.15;;
21038;SDS011;10678;51.002;4.786;2023-03-14T14:34:00;18.75;;;2.78;;
21038;SDS011;10678;51.002;4.786;2023-03-14T14:36:28;11.02;;;2.25;;
21038;SDS011;10678;51.002;4.786;2023-03-14T14:41:47;12.63;;;2.78;;
21038;SDS011;10678;51.002;4.786;2023-03-14T14:44:16;17.30;;;2.85;;
21038;SDS011;10678;51.002;4.786;2023-03-14T14:46:45;8.93;;;2.17;;
21038;SDS011;10678;51.002;4.786;2023-03-14T14:49:15;13.88;;;2.47;;
21038;SDS011;10678;51.002;4.786;2023-03-14T14:51:45;11.82;;;1.60;;
21038;SDS011;10678;51.002;4.786;2023-03-14T14:56:48;5.53;;;1.33;;
21038;SDS011;10678;51.002;4.786;2023-03-14T14:59:27;9.20;;;1.30;;
21038;SDS011;10678;51.002;4.786;2023-03-14T15:02:00;5.70;;;1.10;;
21038;SDS011;10678;51.002;4.786;2023-03-14T15:04:27;7.10;;;1.03;;
21038;SDS011;10678;51.002;4.786;2023-03-14T15:06:56;8.47;;;1.30;;
21038;SDS011;10678;51.002;4.786;2023-03-14T15:09:22;4.57;;;1.03;;
21038;SDS011;10678;51.002;4.786;2023-03-14T15:11:47;6.73;;;0.83;;
21038;SDS011;10678;51.002;4.786;2023-03-14T15:14:14;7.23;;;1.10;;
21038;SDS011;10678;51.002;4.786;2023-03-14T15:16:39;9.20;;;1.70;;
21038;SDS011;10678;51.002;4.786;2023-03-14T15:19:10;8.07;;;1.70;;
21038;SDS011;10678;51.002;4.786;2023-03-14T15:21:48;7.37;;;1.27;;
21038;SDS011;10678;51.002;4.786;2023-03-14T15:24:14;4.97;;;1.23;;
21038;SDS011;10678;51.002;4.786;2023-03-14T15:26:39;6.77;;;1.10;;
21038;SDS011;10678;51.002;4.786;2023-03-14T15:29:05;5.53;;;1.43;;
21038;SDS011;10678;51.002;4.786;2023-03-14T15:31:33;7.40;;;1.43;;
21038;SDS011;10678;51.002;4.786;2023-03-14T15:34:00;9.23;;;1.20;;
21038;SDS011;10678;51.002;4.786;2023-03-14T15:36:26;9.67;;;1.53;;
21038;SDS011;10678;51.002;4.786;2023-03-14T15:38:54;9.50;;;1.65;;
21038;SDS011;10678;51.002;4.786;2023-03-14T15:41:20;5.30;;;1.40;;
21038;SDS011;10678;51.002;4.786;2023-03-14T15:43:47;8.53;;;1.87;;
21038;SDS011;10678;51.002;4.786;2023-03-14T15:46:13;7.57;;;1.50;;
21038;SDS011;10678;51.002;4.786;2023-03-14T15:48:40;6.93;;;1.60;;
21038;SDS011;10678;51.002;4.786;2023-03-14T15:51:06;7.67;;;1.83;;
21038;SDS011;10678;51.002;4.786;2023-03-14T15:53:32;8.27;;;1.40;;
21038;SDS011;10678;51.002;4.786;2023-03-14T15:55:57;6.60;;;1.33;;
21038;SDS011;10678;51.002;4.786;2023-03-14T15:58:23;7.83;;;1.70;;
21038;SDS011;10678;51.002;4.786;2023-03-14T16:00:49;6.97;;;1.70;;
21038;SDS011;10678;51.002;4.786;2023-03-14T16:03:15;10.10;;;2.13;;
21038;SDS011;10678;51.002;4.786;2023-03-14T16:05:41;11.50;;;1.87;;
21038;SDS011;10678;51.002;4.786;2023-03-14T16:08:07;7.83;;;1.30;;
21038;SDS011;10678;51.002;4.786;2023-03-14T16:10:33;8.07;;;1.53;;
21038;SDS011;10678;51.002;4.786;2023-03-14T16:12:59;10.27;;;1.60;;
21038;SDS011;10678;51.002;4.786;2023-03-14T16:15:25;11.33;;;2.33;;
21038;SDS011;10678;51.002;4.786;2023-03-14T16:17:53;6.43;;;1.37;;
21038;SDS011;10678;51.002;4.786;2023-03-14T16:20:19;8.70;;;1.47;;